Time;durP1;ratioP1;P1;durP2;ratioP2;P2;SDS_P1;SDS_P2;PMS_P1;PMS_P2;Temp;Humidity;BMP_temperature;BMP_pressure;BME280_temperature;BME280_humidity;BME280_pressure;Samples;Min_cycle;Max_cycle;Signal;HPM_P1;HPM_P2
2022/10/20 00:01:21;;;;;;;0.80;0.80;;;;;;;;;;4985849;28;20852;-56
2022/10/20 00:03:47;;;;;;;0.80;0.80;;;;;;;;;;4972532;28;21145;-56
2022/10/20 00:06:14;;;;;;;1.00;1.00;;;;;;;;;;4988954;28;20234;-56
2022/10/20 00:08:40;;;;;;;0.70;0.70;;;;;;;;;;4991431;28;20233;-56
2022/10/20 00:11:07;;;;;;;0.90;0.90;;;;;;;;;;4965622;28;20311;-57
2022/10/20 00:13:33;;;;;;;0.90;0.90;;;;;;;;;;4952429;28;20852;-56
2022/10/20 00:15:59;;;;;;;0.90;0.90;;;;;;;;;;4968931;28;21000;-56
2022/10/20 00:18:24;;;;;;;1.00;1.00;;;;;;;;;;4993946;28;20229;-56
2022/10/20 00:20:51;;;;;;;0.90;0.90;;;;;;;;;;4986658;28;20706;-56
2022/10/20 00:23:17;;;;;;;0.90;0.90;;;;;;;;;;4992811;28;21281;-56
2022/10/20 00:25:42;;;;;;;0.90;0.90;;;;;;;;;;5001277;28;20311;-56
2022/10/20 00:28:08;;;;;;;0.70;0.70;;;;;;;;;;4996234;28;20706;-56
2022/10/20 00:30:34;;;;;;;0.70;0.70;;;;;;;;;;4984470;28;20647;-57
2022/10/20 00:33:01;;;;;;;0.90;0.90;;;;;;;;;;4999935;28;20233;-56
2022/10/20 00:35:27;;;;;;;0.80;0.80;;;;;;;;;;4994108;28;20229;-56
2022/10/20 00:37:53;;;;;;;0.60;0.60;;;;;;;;;;4982953;28;20233;-56
2022/10/20 00:40:19;;;;;;;0.80;0.80;;;;;;;;;;4987770;28;20623;-57
2022/10/20 00:42:46;;;;;;;0.70;0.70;;;;;;;;;;4983074;28;20692;-56
2022/10/20 00:45:12;;;;;;;0.90;0.90;;;;;;;;;;4981143;28;20563;-56
2022/10/20 00:47:39;;;;;;;0.93;0.93;;;;;;;;;;4986243;28;20244;-56
2022/10/20 00:50:06;;;;;;;0.73;0.73;;;;;;;;;;4965262;28;20230;-57
2022/10/20 00:52:32;;;;;;;0.80;0.80;;;;;;;;;;4987924;28;20261;-56
2022/10/20 00:54:59;;;;;;;0.83;0.83;;;;;;;;;;4960688;28;20340;-57
2022/10/20 00:57:25;;;;;;;0.83;0.83;;;;;;;;;;4982551;28;20625;-56
2022/10/20 00:59:51;;;;;;;0.70;0.70;;;;;;;;;;4980941;28;20220;-56
2022/10/20 01:07:25;;;;;;;0.90;0.90;;;;;;;;;;4991488;23;20303;-57
2022/10/20 01:09:51;;;;;;;0.90;0.90;;;;;;;;;;4997580;28;20221;-56
2022/10/20 01:12:26;;;;;;;0.80;0.80;;;;;;;;;;5017032;28;20538;-56
2022/10/20 01:15:12;;;;;;;0.97;0.97;;;;;;;;;;4981330;28;20580;-56
2022/10/20 01:17:57;;;;;;;0.90;0.90;;;;;;;;;;5002722;28;20248;-57
2022/10/20 01:20:32;;;;;;;1.00;1.00;;;;;;;;;;5008451;28;21289;-57
2022/10/20 01:23:04;;;;;;;0.80;0.80;;;;;;;;;;5004685;28;20228;-56
2022/10/20 01:25:39;;;;;;;0.70;0.70;;;;;;;;;;4999655;28;20351;-56
2022/10/20 01:28:12;;;;;;;0.90;0.90;;;;;;;;;;4974513;28;20239;-57
2022/10/20 01:30:39;;;;;;;0.90;0.90;;;;;;;;;;4965239;28;21397;-57
2022/10/20 01:33:28;;;;;;;0.90;0.90;;;;;;;;;;4986975;28;20928;-57
2022/10/20 01:35:57;;;;;;;1.10;1.10;;;;;;;;;;5004135;28;20382;-56
2022/10/20 01:38:35;;;;;;;1.00;1.00;;;;;;;;;;4981106;28;20558;-56
2022/10/20 01:41:02;;;;;;;1.00;1.00;;;;;;;;;;4988774;28;20228;-57
2022/10/20 01:43:29;;;;;;;0.90;0.90;;;;;;;;;;4995534;28;20790;-56
2022/10/20 01:45:55;;;;;;;0.80;0.80;;;;;;;;;;4992777;28;20587;-57
2022/10/20 01:48:22;;;;;;;1.00;1.00;;;;;;;;;;4996079;28;20322;-57
2022/10/20 01:50:48;;;;;;;0.80;0.80;;;;;;;;;;4998041;28;20309;-57
2022/10/20 01:53:14;;;;;;;0.80;0.80;;;;;;;;;;5021700;28;20228;-56
2022/10/20 01:55:40;;;;;;;0.90;0.90;;;;;;;;;;5004206;28;20690;-56
2022/10/20 01:58:34;;;;;;;1.00;1.00;;;;;;;;;;5015689;28;20220;-56
2022/10/20 02:01:07;;;;;;;0.80;0.80;;;;;;;;;;5006179;28;20213;-56
2022/10/20 02:03:36;;;;;;;0.87;0.87;;;;;;;;;;4997093;28;20291;-56
2022/10/20 02:06:21;;;;;;;0.90;0.90;;;;;;;;;;5002351;28;20913;-57
2022/10/20 02:08:47;;;;;;;1.00;1.00;;;;;;;;;;4997012;28;20232;-56
2022/10/20 02:11:19;;;;;;;0.80;0.80;;;;;;;;;;4997302;28;20229;-57
2022/10/20 02:13:44;;;;;;;0.77;0.77;;;;;;;;;;4992617;28;20225;-57
2022/10/20 02:16:12;;;;;;;1.00;1.00;;;;;;;;;;4982994;28;20221;-56
2022/10/20 02:18:40;;;;;;;0.87;0.87;;;;;;;;;;4963570;28;20530;-56
2022/10/20 02:21:06;;;;;;;0.90;0.90;;;;;;;;;;4999227;28;20740;-57
2022/10/20 02:23:32;;;;;;;1.20;1.20;;;;;;;;;;4980968;28;20339;-57
2022/10/20 02:25:58;;;;;;;0.90;0.90;;;;;;;;;;4989739;28;20307;-57
2022/10/20 02:28:24;;;;;;;0.80;0.80;;;;;;;;;;4985791;28;20268;-58
2022/10/20 02:30:50;;;;;;;0.90;0.90;;;;;;;;;;4985748;28;20847;-56
2022/10/20 02:33:16;;;;;;;0.90;0.90;;;;;;;;;;4995884;28;20225;-57
2022/10/20 02:35:43;;;;;;;0.93;0.93;;;;;;;;;;4989355;28;20250;-56
2022/10/20 02:38:09;;;;;;;0.90;0.90;;;;;;;;;;4994061;28;20586;-57
2022/10/20 02:40:35;;;;;;;0.90;0.90;;;;;;;;;;4990615;28;20829;-57
2022/10/20 02:43:01;;;;;;;0.80;0.80;;;;;;;;;;4990737;28;20228;-58
2022/10/20 02:45:27;;;;;;;0.90;0.90;;;;;;;;;;4990303;28;20221;-56
2022/10/20 02:47:53;;;;;;;0.80;0.80;;;;;;;;;;4991733;28;20221;-57
2022/10/20 02:50:18;;;;;;;0.87;0.87;;;;;;;;;;4990421;28;20332;-57
2022/10/20 02:52:44;;;;;;;0.80;0.80;;;;;;;;;;4988620;28;20324;-57
2022/10/20 02:55:10;;;;;;;0.90;0.90;;;;;;;;;;4988906;28;20230;-57
2022/10/20 02:57:36;;;;;;;1.00;1.00;;;;;;;;;;4975212;28;20738;-57
2022/10/20 03:00:03;;;;;;;0.80;0.80;;;;;;;;;;4995045;28;20231;-57
2022/10/20 03:02:29;;;;;;;0.80;0.80;;;;;;;;;;4987181;28;20768;-57
2022/10/20 03:04:55;;;;;;;0.90;0.90;;;;;;;;;;4990706;28;20245;-56
2022/10/20 03:07:21;;;;;;;0.80;0.80;;;;;;;;;;4984626;28;20241;-57
2022/10/20 03:09:47;;;;;;;0.80;0.80;;;;;;;;;;5000718;28;20229;-56
2022/10/20 03:12:13;;;;;;;0.70;0.70;;;;;;;;;;4991258;28;20729;-57
2022/10/20 03:14:41;;;;;;;0.80;0.80;;;;;;;;;;4989910;28;20355;-57
2022/10/20 03:17:07;;;;;;;0.73;0.73;;;;;;;;;;4986951;28;20256;-56
2022/10/20 03:19:33;;;;;;;0.70;0.70;;;;;;;;;;4996881;28;20745;-56
2022/10/20 03:21:59;;;;;;;1.10;1.10;;;;;;;;;;4989201;28;20300;-57
2022/10/20 03:24:25;;;;;;;0.97;0.97;;;;;;;;;;4987068;28;20302;-56
2022/10/20 03:26:51;;;;;;;0.90;0.90;;;;;;;;;;4989624;28;20296;-57
2022/10/20 03:29:17;;;;;;;0.97;0.97;;;;;;;;;;4993127;28;20233;-56
2022/10/20 03:31:43;;;;;;;0.80;0.80;;;;;;;;;;4992556;28;20228;-57
2022/10/20 03:34:09;;;;;;;0.90;0.90;;;;;;;;;;4992583;28;20228;-57
2022/10/20 03:36:35;;;;;;;1.00;1.00;;;;;;;;;;4957324;28;20229;-57
2022/10/20 03:39:01;;;;;;;0.83;0.83;;;;;;;;;;4990292;28;20569;-57
2022/10/20 03:41:27;;;;;;;0.90;0.90;;;;;;;;;;4993705;28;20300;-57
2022/10/20 03:43:53;;;;;;;0.90;0.90;;;;;;;;;;4995268;28;20252;-57
2022/10/20 03:46:18;;;;;;;0.80;0.80;;;;;;;;;;4988318;28;20855;-57
2022/10/20 03:48:44;;;;;;;0.80;0.80;;;;;;;;;;5000311;28;20240;-56
2022/10/20 03:51:11;;;;;;;0.77;0.77;;;;;;;;;;4993093;28;20275;-56
2022/10/20 03:53:37;;;;;;;0.80;0.80;;;;;;;;;;4988921;28;20825;-56
2022/10/20 03:56:06;;;;;;;0.70;0.70;;;;;;;;;;4997998;28;20712;-56
2022/10/20 03:58:32;;;;;;;0.80;0.80;;;;;;;;;;4999037;28;20240;-56
2022/10/20 04:00:58;;;;;;;0.80;0.80;;;;;;;;;;4984559;28;20989;-55
2022/10/20 04:03:24;;;;;;;1.10;1.10;;;;;;;;;;4997775;28;20225;-56
2022/10/20 04:05:50;;;;;;;0.90;0.90;;;;;;;;;;4988686;28;20924;-56
2022/10/20 04:08:16;;;;;;;0.90;0.90;;;;;;;;;;4989929;28;20228;-56
2022/10/20 04:10:42;;;;;;;0.90;0.90;;;;;;;;;;4982527;28;20233;-57
2022/10/20 04:13:08;;;;;;;0.97;0.97;;;;;;;;;;4979881;28;20228;-57
2022/10/20 04:15:33;;;;;;;0.90;0.90;;;;;;;;;;4972496;28;20531;-56
2022/10/20 04:17:59;;;;;;;0.90;0.90;;;;;;;;;;4969877;28;20707;-57
2022/10/20 04:20:25;;;;;;;0.80;0.80;;;;;;;;;;4972842;28;20675;-56
2022/10/20 04:22:51;;;;;;;0.90;0.90;;;;;;;;;;4972295;28;20599;-57
2022/10/20 04:25:17;;;;;;;0.70;0.70;;;;;;;;;;4983400;28;20695;-56
2022/10/20 04:27:43;;;;;;;0.80;0.80;;;;;;;;;;4974226;28;20221;-57
2022/10/20 04:30:09;;;;;;;0.83;0.83;;;;;;;;;;4950298;28;20241;-57
2022/10/20 04:32:35;;;;;;;0.83;0.83;;;;;;;;;;4968293;28;20752;-56
2022/10/20 04:35:01;;;;;;;0.90;0.90;;;;;;;;;;4980411;28;20229;-57
2022/10/20 04:37:27;;;;;;;0.70;0.70;;;;;;;;;;4989128;28;20249;-55
2022/10/20 04:39:56;;;;;;;0.80;0.80;;;;;;;;;;4985325;28;20229;-56
2022/10/20 04:42:22;;;;;;;0.90;0.90;;;;;;;;;;4981754;28;20229;-55
2022/10/20 04:44:48;;;;;;;0.97;0.97;;;;;;;;;;4977623;28;20228;-57
2022/10/20 04:47:14;;;;;;;1.00;1.00;;;;;;;;;;4933593;28;20222;-56
2022/10/20 04:49:40;;;;;;;0.90;0.90;;;;;;;;;;4973652;28;21166;-56
2022/10/20 04:52:06;;;;;;;0.73;0.73;;;;;;;;;;4953608;28;20266;-56
2022/10/20 04:54:32;;;;;;;0.93;0.93;;;;;;;;;;4978893;28;20628;-57
2022/10/20 04:56:58;;;;;;;1.00;1.00;;;;;;;;;;4970643;28;20601;-56
2022/10/20 04:59:24;;;;;;;0.87;0.87;;;;;;;;;;4970604;28;21733;-56
2022/10/20 05:01:50;;;;;;;0.90;0.90;;;;;;;;;;4942766;28;20221;-56
2022/10/20 05:04:20;;;;;;;1.00;1.00;;;;;;;;;;4964353;28;20889;-55
2022/10/20 05:06:46;;;;;;;0.90;0.90;;;;;;;;;;4961837;28;20331;-55
2022/10/20 05:09:13;;;;;;;1.00;1.00;;;;;;;;;;4972321;28;20226;-54
2022/10/20 05:11:39;;;;;;;0.97;0.97;;;;;;;;;;4955400;28;20677;-55
2022/10/20 05:14:05;;;;;;;0.90;0.90;;;;;;;;;;4976419;28;20228;-57
2022/10/20 05:16:30;;;;;;;1.03;1.03;;;;;;;;;;4966338;28;20236;-55
2022/10/20 05:18:57;;;;;;;1.10;1.10;;;;;;;;;;4976114;28;20228;-55
2022/10/20 05:21:27;;;;;;;0.80;0.80;;;;;;;;;;4991389;28;20391;-53
2022/10/20 05:23:56;;;;;;;0.90;0.90;;;;;;;;;;4992717;28;20234;-52
2022/10/20 05:26:22;;;;;;;0.70;0.70;;;;;;;;;;4982957;28;20307;-54
2022/10/20 05:28:49;;;;;;;0.70;0.70;;;;;;;;;;4993185;28;20229;-54
2022/10/20 05:31:15;;;;;;;0.80;0.80;;;;;;;;;;4984437;28;20282;-54
2022/10/20 05:33:45;;;;;;;0.90;0.90;;;;;;;;;;5003493;28;20221;-54
2022/10/20 05:36:11;;;;;;;0.90;0.90;;;;;;;;;;5004931;28;20257;-53
2022/10/20 05:38:38;;;;;;;0.90;0.90;;;;;;;;;;5002725;28;20220;-54
2022/10/20 05:41:08;;;;;;;0.90;0.90;;;;;;;;;;4983689;28;20213;-53
2022/10/20 05:43:34;;;;;;;0.80;0.80;;;;;;;;;;5000185;28;20325;-54
2022/10/20 05:46:00;;;;;;;1.10;1.10;;;;;;;;;;5001384;28;20255;-54
2022/10/20 05:48:26;;;;;;;1.00;1.00;;;;;;;;;;5003910;28;20739;-54
2022/10/20 05:50:52;;;;;;;0.80;0.80;;;;;;;;;;5006221;28;20252;-54
2022/10/20 05:53:18;;;;;;;0.80;0.80;;;;;;;;;;5001544;28;20217;-54
2022/10/20 05:55:44;;;;;;;0.80;0.80;;;;;;;;;;5003589;28;20219;-54
2022/10/20 05:58:10;;;;;;;0.90;0.90;;;;;;;;;;4989602;28;20750;-54
2022/10/20 06:00:40;;;;;;;0.90;0.90;;;;;;;;;;5004612;28;20217;-53
2022/10/20 06:03:07;;;;;;;1.00;1.00;;;;;;;;;;5002670;28;20826;-54
2022/10/20 06:05:33;;;;;;;0.83;0.83;;;;;;;;;;5007472;28;20643;-53
2022/10/20 06:07:59;;;;;;;1.00;1.00;;;;;;;;;;4990243;28;20256;-53
2022/10/20 06:10:25;;;;;;;0.80;0.80;;;;;;;;;;5005876;28;20300;-53
2022/10/20 06:12:51;;;;;;;0.93;0.93;;;;;;;;;;5006693;28;20225;-54
2022/10/20 06:15:17;;;;;;;0.90;0.90;;;;;;;;;;5009631;28;20329;-54
2022/10/20 06:17:43;;;;;;;0.70;0.70;;;;;;;;;;5007527;28;20754;-54
2022/10/20 06:20:09;;;;;;;1.00;1.00;;;;;;;;;;4981482;28;20533;-53
2022/10/20 06:22:35;;;;;;;1.10;1.10;;;;;;;;;;5000057;28;20243;-54
2022/10/20 06:25:01;;;;;;;0.90;0.90;;;;;;;;;;5002963;28;20231;-54
2022/10/20 06:27:27;;;;;;;1.00;1.00;;;;;;;;;;5000170;28;20225;-54
2022/10/20 06:29:53;;;;;;;0.80;0.80;;;;;;;;;;4998536;28;20233;-54
2022/10/20 06:32:19;;;;;;;0.90;0.90;;;;;;;;;;5006529;28;20225;-54
2022/10/20 06:34:45;;;;;;;0.90;0.90;;;;;;;;;;5002500;28;20276;-54
2022/10/20 06:37:11;;;;;;;0.80;0.80;;;;;;;;;;5007001;28;20224;-54
2022/10/20 06:39:37;;;;;;;0.90;0.90;;;;;;;;;;4999991;28;20223;-53
2022/10/20 06:42:04;;;;;;;0.80;0.80;;;;;;;;;;5004754;28;20341;-53
2022/10/20 06:44:30;;;;;;;1.03;1.03;;;;;;;;;;5004731;28;20614;-54
2022/10/20 06:46:56;;;;;;;0.90;0.90;;;;;;;;;;5005270;28;20217;-54
2022/10/20 06:49:22;;;;;;;0.90;0.90;;;;;;;;;;5003608;28;20217;-53
2022/10/20 06:51:48;;;;;;;0.80;0.80;;;;;;;;;;5008390;28;20695;-54
2022/10/20 06:54:14;;;;;;;0.87;0.87;;;;;;;;;;5004397;28;20669;-54
2022/10/20 06:56:40;;;;;;;0.93;0.93;;;;;;;;;;5007428;28;20224;-54
2022/10/20 06:59:06;;;;;;;0.90;0.90;;;;;;;;;;5002268;28;20291;-54
2022/10/20 07:01:32;;;;;;;0.90;0.90;;;;;;;;;;5001482;28;20692;-54
2022/10/20 07:04:02;;;;;;;0.80;0.80;;;;;;;;;;5012842;28;20252;-54
2022/10/20 07:06:32;;;;;;;0.90;0.90;;;;;;;;;;5003541;28;20277;-54
2022/10/20 07:08:58;;;;;;;0.80;0.80;;;;;;;;;;5007895;28;20895;-54
2022/10/20 07:11:25;;;;;;;0.70;0.70;;;;;;;;;;5002050;28;20316;-54
2022/10/20 07:13:51;;;;;;;0.90;0.90;;;;;;;;;;5001419;28;20694;-53
2022/10/20 07:16:18;;;;;;;0.80;0.80;;;;;;;;;;4997996;28;20235;-54
2022/10/20 07:18:44;;;;;;;0.80;0.80;;;;;;;;;;4998488;28;20611;-54
2022/10/20 07:21:17;;;;;;;1.10;1.10;;;;;;;;;;4999040;28;20229;-54
2022/10/20 07:23:43;;;;;;;0.60;0.60;;;;;;;;;;5002322;28;20244;-54
2022/10/20 07:26:19;;;;;;;0.80;0.80;;;;;;;;;;5003034;28;20320;-54
2022/10/20 07:28:46;;;;;;;0.80;0.80;;;;;;;;;;5007123;28;20294;-54
2022/10/20 07:31:13;;;;;;;0.80;0.80;;;;;;;;;;4978852;28;20225;-54
2022/10/20 07:33:39;;;;;;;0.90;0.90;;;;;;;;;;4998798;28;20325;-53
2022/10/20 07:36:15;;;;;;;0.80;0.80;;;;;;;;;;4994799;28;20645;-54
2022/10/20 07:38:41;;;;;;;0.90;0.90;;;;;;;;;;4997272;28;20893;-54
2022/10/20 07:41:07;;;;;;;0.80;0.80;;;;;;;;;;5002287;28;20316;-54
2022/10/20 07:43:34;;;;;;;0.70;0.70;;;;;;;;;;4995852;28;20731;-53
2022/10/20 07:45:59;;;;;;;0.70;0.70;;;;;;;;;;5001292;28;20324;-54
2022/10/20 07:48:25;;;;;;;0.90;0.90;;;;;;;;;;4999504;28;20284;-54
2022/10/20 07:50:51;;;;;;;0.90;0.90;;;;;;;;;;5005098;28;20236;-54
2022/10/20 07:53:17;;;;;;;0.80;0.80;;;;;;;;;;5002261;28;20275;-54
2022/10/20 07:55:44;;;;;;;0.73;0.73;;;;;;;;;;5001823;28;20225;-53
2022/10/20 07:58:10;;;;;;;0.80;0.80;;;;;;;;;;4975298;28;20572;-54
2022/10/20 08:00:36;;;;;;;0.70;0.70;;;;;;;;;;5000967;28;21550;-54
2022/10/20 08:03:02;;;;;;;0.70;0.70;;;;;;;;;;4988742;28;20683;-54
2022/10/20 08:05:28;;;;;;;0.90;0.90;;;;;;;;;;4998851;28;20240;-54
2022/10/20 08:07:54;;;;;;;0.90;0.90;;;;;;;;;;4990368;28;20245;-54
2022/10/20 08:10:20;;;;;;;0.90;0.90;;;;;;;;;;4999555;28;20235;-54
2022/10/20 08:12:46;;;;;;;0.70;0.70;;;;;;;;;;5006387;28;20643;-54
2022/10/20 08:15:12;;;;;;;0.80;0.80;;;;;;;;;;4998205;28;20748;-54
2022/10/20 08:17:38;;;;;;;0.70;0.70;;;;;;;;;;4992132;28;20601;-54
2022/10/20 08:20:05;;;;;;;1.30;1.30;;;;;;;;;;5001046;28;20231;-54
2022/10/20 08:22:31;;;;;;;0.90;0.90;;;;;;;;;;4986793;28;20221;-53
2022/10/20 08:24:57;;;;;;;0.90;0.90;;;;;;;;;;5001493;28;20213;-54
2022/10/20 08:27:22;;;;;;;1.00;1.00;;;;;;;;;;5004588;28;20588;-54
2022/10/20 08:29:48;;;;;;;1.00;1.00;;;;;;;;;;4999436;28;20233;-54
2022/10/20 08:32:14;;;;;;;1.10;1.10;;;;;;;;;;5008936;28;20685;-54
2022/10/20 08:34:40;;;;;;;0.90;0.90;;;;;;;;;;4997739;28;20210;-53
2022/10/20 08:37:06;;;;;;;0.80;0.80;;;;;;;;;;4977524;28;20232;-54
2022/10/20 08:39:32;;;;;;;1.00;1.00;;;;;;;;;;5001816;28;20490;-54
2022/10/20 08:41:58;;;;;;;1.10;1.10;;;;;;;;;;5009475;28;20592;-53
2022/10/20 08:44:25;;;;;;;1.10;1.10;;;;;;;;;;5006189;28;20228;-54
2022/10/20 08:46:51;;;;;;;0.80;0.80;;;;;;;;;;5000787;28;20299;-54
2022/10/20 08:49:27;;;;;;;0.80;0.80;;;;;;;;;;5004779;28;20311;-54
2022/10/20 08:51:53;;;;;;;0.93;0.93;;;;;;;;;;4973739;28;20678;-54
2022/10/20 08:54:19;;;;;;;1.00;1.00;;;;;;;;;;5003574;28;20237;-54
2022/10/20 08:56:45;;;;;;;0.90;0.90;;;;;;;;;;5007097;28;20773;-54
2022/10/20 08:59:30;;;;;;;0.80;0.80;;;;;;;;;;5001994;28;20232;-54
2022/10/20 09:01:56;;;;;;;1.00;1.00;;;;;;;;;;5001484;28;20233;-54
2022/10/20 09:04:31;;;;;;;1.10;1.10;;;;;;;;;;5000450;28;20247;-54
2022/10/20 09:06:58;;;;;;;1.17;1.17;;;;;;;;;;4999451;28;20240;-54
2022/10/20 09:09:25;;;;;;;0.90;0.90;;;;;;;;;;4981307;28;20234;-54
2022/10/20 09:11:51;;;;;;;1.03;1.03;;;;;;;;;;5000906;28;20222;-54
2022/10/20 09:14:17;;;;;;;1.00;1.00;;;;;;;;;;4979798;28;20265;-54
2022/10/20 09:16:45;;;;;;;0.80;0.80;;;;;;;;;;4995218;28;20312;-54
2022/10/20 09:19:18;;;;;;;1.00;1.00;;;;;;;;;;4976772;28;20237;-54
2022/10/20 09:21:45;;;;;;;1.03;1.03;;;;;;;;;;5008807;28;20567;-54
2022/10/20 09:24:11;;;;;;;0.93;0.93;;;;;;;;;;4981792;28;20249;-54
2022/10/20 09:26:39;;;;;;;1.00;1.00;;;;;;;;;;5000115;28;21705;-54
2022/10/20 09:29:08;;;;;;;0.80;0.80;;;;;;;;;;4981137;28;20241;-54
2022/10/20 09:31:37;;;;;;;0.90;0.90;;;;;;;;;;5000025;28;20250;-54
2022/10/20 09:34:24;;;;;;;0.90;0.90;;;;;;;;;;4998138;28;20579;-54
2022/10/20 09:36:51;;;;;;;0.70;0.70;;;;;;;;;;4994538;28;20676;-54
2022/10/20 09:39:21;;;;;;;0.80;0.80;;;;;;;;;;4979101;28;20226;-54
2022/10/20 09:41:47;;;;;;;0.80;0.80;;;;;;;;;;5002428;28;20266;-54
2022/10/20 09:44:22;;;;;;;0.77;0.77;;;;;;;;;;4973773;28;20308;-54
2022/10/20 09:46:49;;;;;;;0.70;0.70;;;;;;;;;;5003907;28;20621;-55
2022/10/20 09:49:25;;;;;;;0.73;0.73;;;;;;;;;;4982578;28;20230;-54
2022/10/20 09:51:52;;;;;;;0.70;0.70;;;;;;;;;;4993928;28;20662;-54
2022/10/20 09:54:18;;;;;;;0.90;0.90;;;;;;;;;;4983741;28;20271;-54
2022/10/20 09:56:45;;;;;;;0.80;0.80;;;;;;;;;;5006518;28;20631;-54
2022/10/20 09:59:19;;;;;;;0.80;0.80;;;;;;;;;;4982846;28;20729;-54
2022/10/20 10:01:52;;;;;;;0.90;0.90;;;;;;;;;;5001431;28;20307;-54
2022/10/20 10:04:31;;;;;;;0.77;0.77;;;;;;;;;;4996689;28;20637;-54
2022/10/20 10:06:57;;;;;;;0.70;0.70;;;;;;;;;;4997392;28;20242;-54
2022/10/20 10:09:26;;;;;;;0.87;0.87;;;;;;;;;;4996582;28;20236;-55
2022/10/20 10:12:05;;;;;;;0.90;0.90;;;;;;;;;;5010922;28;20707;-54
2022/10/20 10:14:32;;;;;;;0.90;0.90;;;;;;;;;;5003524;28;20232;-54
2022/10/20 10:16:58;;;;;;;0.80;0.80;;;;;;;;;;4993710;28;20731;-55
2022/10/20 10:19:26;;;;;;;0.80;0.80;;;;;;;;;;4988262;28;20259;-54
2022/10/20 10:21:55;;;;;;;0.80;0.80;;;;;;;;;;4976707;28;20676;-54
2022/10/20 10:24:38;;;;;;;0.90;0.90;;;;;;;;;;4977931;28;20233;-55
2022/10/20 10:27:04;;;;;;;0.70;0.70;;;;;;;;;;4968062;28;20221;-54
2022/10/20 10:29:34;;;;;;;0.90;0.90;;;;;;;;;;4973317;28;20229;-54
2022/10/20 10:32:01;;;;;;;0.70;0.70;;;;;;;;;;5003523;28;20659;-54
2022/10/20 10:34:42;;;;;;;0.60;0.60;;;;;;;;;;4998277;28;20283;-54
2022/10/20 10:37:10;;;;;;;0.70;0.70;;;;;;;;;;5002410;28;20268;-54
2022/10/20 10:39:36;;;;;;;0.80;0.80;;;;;;;;;;4978701;28;20340;-54
2022/10/20 10:42:21;;;;;;;0.70;0.70;;;;;;;;;;4999011;28;20634;-54
2022/10/20 10:44:53;;;;;;;0.73;0.73;;;;;;;;;;4997199;28;20311;-53
2022/10/20 10:47:28;;;;;;;0.80;0.80;;;;;;;;;;4991923;28;20229;-54
2022/10/20 10:50:14;;;;;;;0.70;0.70;;;;;;;;;;4992703;28;20232;-54
2022/10/20 10:52:59;;;;;;;0.90;0.90;;;;;;;;;;5003587;28;20233;-54
2022/10/20 10:55:26;;;;;;;0.70;0.70;;;;;;;;;;5004842;28;20258;-54
2022/10/20 10:58:02;;;;;;;0.77;0.77;;;;;;;;;;4971626;28;20221;-55
2022/10/20 11:00:34;;;;;;;0.70;0.70;;;;;;;;;;4974243;28;20217;-54
2022/10/20 11:03:19;;;;;;;0.77;0.77;;;;;;;;;;4996203;28;20232;-54
2022/10/20 11:05:56;;;;;;;0.90;0.90;;;;;;;;;;4995302;28;20268;-54
2022/10/20 11:08:29;;;;;;;0.70;0.70;;;;;;;;;;4984038;28;20266;-53
2022/10/20 11:11:01;;;;;;;1.00;1.00;;;;;;;;;;4989556;28;21395;-53
2022/10/20 11:13:33;;;;;;;0.90;0.90;;;;;;;;;;4989497;28;21186;-55
2022/10/20 11:16:15;;;;;;;0.80;0.80;;;;;;;;;;4992889;28;20248;-51
2022/10/20 11:18:48;;;;;;;0.90;0.90;;;;;;;;;;4949846;28;20699;-54
2022/10/20 11:21:26;;;;;;;0.60;0.60;;;;;;;;;;4996657;28;20295;-52
2022/10/20 11:24:11;;;;;;;0.70;0.70;;;;;;;;;;4993823;28;20221;-54
2022/10/20 11:26:37;;;;;;;0.90;0.90;;;;;;;;;;4993758;28;20820;-53
2022/10/20 11:29:04;;;;;;;1.00;1.00;;;;;;;;;;4991435;28;20829;-53
2022/10/20 11:31:40;;;;;;;1.00;1.00;;;;;;;;;;4994173;28;20251;-53
2022/10/20 11:34:10;;;;;;;1.10;1.10;;;;;;;;;;4983693;28;20229;-53
2022/10/20 11:36:38;;;;;;;1.00;1.00;;;;;;;;;;4981752;28;20221;-54
2022/10/20 11:39:05;;;;;;;1.00;1.00;;;;;;;;;;4963553;28;20234;-53
2022/10/20 11:41:48;;;;;;;1.00;1.00;;;;;;;;;;4988722;28;20731;-53
2022/10/20 11:44:30;;;;;;;0.90;0.90;;;;;;;;;;4965703;28;20272;-54
2022/10/20 11:47:00;;;;;;;1.00;1.00;;;;;;;;;;4960400;28;20652;-53
2022/10/20 11:49:26;;;;;;;0.93;0.93;;;;;;;;;;4954960;28;20704;-53
2022/10/20 11:52:04;;;;;;;0.70;0.70;;;;;;;;;;4982718;28;20231;-53
2022/10/20 11:54:33;;;;;;;0.90;0.90;;;;;;;;;;4970078;28;20321;-53
2022/10/20 11:57:02;;;;;;;0.73;0.73;;;;;;;;;;4983876;28;20225;-53
2022/10/20 11:59:40;;;;;;;0.80;0.80;;;;;;;;;;4973242;28;20229;-52
2022/10/20 12:02:26;;;;;;;0.67;0.67;;;;;;;;;;4973428;28;20723;-53
2022/10/20 12:04:55;;;;;;;0.90;0.90;;;;;;;;;;4982642;28;20220;-53
2022/10/20 12:07:28;;;;;;;1.00;1.00;;;;;;;;;;4984120;28;20268;-53
2022/10/20 12:10:03;;;;;;;0.70;0.70;;;;;;;;;;4957495;28;20235;-54
2022/10/20 12:12:30;;;;;;;1.00;1.00;;;;;;;;;;4963986;28;20259;-53
2022/10/20 12:14:57;;;;;;;1.00;1.00;;;;;;;;;;4962317;28;20217;-52
2022/10/20 12:17:30;;;;;;;0.90;0.90;;;;;;;;;;4967110;28;20294;-52
2022/10/20 12:20:29;;;;;;;0.90;0.90;;;;;;;;;;4977362;28;20221;-52
2022/10/20 12:22:57;;;;;;;0.80;0.80;;;;;;;;;;4995626;28;20237;-54
2022/10/20 12:25:26;;;;;;;0.77;0.77;;;;;;;;;;4986465;28;20232;-53
2022/10/20 12:28:11;;;;;;;0.90;0.90;;;;;;;;;;4984419;28;20227;-53
2022/10/20 12:30:37;;;;;;;0.70;0.70;;;;;;;;;;4988806;28;20251;-53
2022/10/20 12:33:15;;;;;;;1.00;1.00;;;;;;;;;;4969251;28;20699;-53
2022/10/20 12:36:00;;;;;;;0.70;0.70;;;;;;;;;;4982451;28;20220;-52
2022/10/20 12:38:26;;;;;;;1.00;1.00;;;;;;;;;;4987031;28;20657;-53
2022/10/20 12:40:54;;;;;;;0.70;0.70;;;;;;;;;;4968517;28;20225;-53
2022/10/20 12:43:43;;;;;;;0.70;0.70;;;;;;;;;;4954995;28;20233;-53
2022/10/20 12:46:10;;;;;;;0.97;0.97;;;;;;;;;;4978782;28;20324;-52
2022/10/20 12:48:38;;;;;;;0.90;0.90;;;;;;;;;;4984513;28;20229;-53
2022/10/20 12:51:06;;;;;;;0.80;0.80;;;;;;;;;;4976134;28;20825;-54
2022/10/20 12:53:32;;;;;;;1.00;1.00;;;;;;;;;;4974916;28;20817;-53
2022/10/20 12:56:06;;;;;;;0.70;0.70;;;;;;;;;;4956994;28;20731;-54
2022/10/20 12:58:32;;;;;;;0.70;0.70;;;;;;;;;;4980298;28;20237;-52
2022/10/20 13:00:58;;;;;;;0.90;0.90;;;;;;;;;;4967650;28;21014;-53
2022/10/20 13:03:45;;;;;;;0.80;0.80;;;;;;;;;;4991868;28;20233;-52
2022/10/20 13:06:26;;;;;;;0.80;0.80;;;;;;;;;;4972850;28;20828;-54
2022/10/20 13:09:09;;;;;;;1.00;1.00;;;;;;;;;;4996838;28;20232;-54
2022/10/20 13:11:37;;;;;;;0.93;0.93;;;;;;;;;;4974620;28;20284;-53
2022/10/20 13:14:12;;;;;;;0.90;0.90;;;;;;;;;;4953380;28;21493;-54
2022/10/20 13:16:40;;;;;;;0.90;0.90;;;;;;;;;;4953654;28;20279;-54
2022/10/20 13:19:06;;;;;;;0.90;0.90;;;;;;;;;;4967344;28;20750;-53
2022/10/20 13:21:32;;;;;;;1.00;1.00;;;;;;;;;;4975632;28;20642;-53
2022/10/20 13:23:58;;;;;;;0.80;0.80;;;;;;;;;;4974553;28;20225;-53
2022/10/20 13:26:31;;;;;;;0.73;0.73;;;;;;;;;;4987515;28;20746;-52
2022/10/20 13:29:00;;;;;;;1.00;1.00;;;;;;;;;;4969416;28;20716;-53
2022/10/20 13:31:35;;;;;;;0.70;0.70;;;;;;;;;;4991491;28;20338;-53
2022/10/20 13:34:04;;;;;;;0.70;0.70;;;;;;;;;;4986511;28;20264;-54
2022/10/20 13:36:40;;;;;;;0.70;0.70;;;;;;;;;;4988725;28;20704;-53
2022/10/20 13:39:05;;;;;;;1.00;1.00;;;;;;;;;;4993400;28;20232;-53
2022/10/20 13:41:38;;;;;;;1.00;1.00;;;;;;;;;;4998805;28;20369;-53
2022/10/20 13:44:10;;;;;;;0.80;0.80;;;;;;;;;;4957728;28;20532;-53
2022/10/20 13:46:42;;;;;;;0.80;0.80;;;;;;;;;;4983201;28;20292;-54
2022/10/20 13:49:08;;;;;;;0.80;0.80;;;;;;;;;;4948723;28;21108;-53
2022/10/20 13:51:38;;;;;;;0.70;0.70;;;;;;;;;;4979766;28;20571;-53
2022/10/20 13:54:04;;;;;;;0.60;0.60;;;;;;;;;;4973133;28;20811;-54
2022/10/20 13:56:37;;;;;;;0.70;0.70;;;;;;;;;;4981298;28;20233;-52
2022/10/20 13:59:17;;;;;;;0.87;0.87;;;;;;;;;;4966003;28;20715;-53
2022/10/20 14:01:47;;;;;;;1.00;1.00;;;;;;;;;;4930916;28;20256;-53
2022/10/20 14:04:39;;;;;;;0.70;0.70;;;;;;;;;;4990845;28;20234;-53
2022/10/20 14:07:12;;;;;;;0.60;0.60;;;;;;;;;;4979811;28;20241;-53
2022/10/20 14:09:38;;;;;;;0.70;0.70;;;;;;;;;;4994577;28;20594;-52
2022/10/20 14:12:08;;;;;;;0.80;0.80;;;;;;;;;;4972571;28;20226;-54
2022/10/20 14:14:34;;;;;;;0.70;0.70;;;;;;;;;;4966021;28;20990;-53
2022/10/20 14:17:01;;;;;;;0.80;0.80;;;;;;;;;;4982454;28;20703;-53
2022/10/20 14:19:27;;;;;;;0.93;0.93;;;;;;;;;;4990038;28;20264;-53
2022/10/20 14:21:55;;;;;;;0.70;0.70;;;;;;;;;;4987788;28;20260;-53
2022/10/20 14:24:26;;;;;;;0.70;0.70;;;;;;;;;;4988390;28;20221;-53
2022/10/20 14:26:52;;;;;;;0.60;0.60;;;;;;;;;;4990229;28;20804;-53
2022/10/20 14:29:18;;;;;;;0.70;0.70;;;;;;;;;;4978131;28;20236;-53
2022/10/20 14:31:44;;;;;;;0.60;0.60;;;;;;;;;;4963713;28;20394;-54
2022/10/20 14:34:21;;;;;;;0.80;0.80;;;;;;;;;;4995339;28;20214;-53
2022/10/20 14:36:47;;;;;;;0.70;0.70;;;;;;;;;;4965465;28;20221;-53
2022/10/20 14:39:39;;;;;;;0.70;0.70;;;;;;;;;;4985397;28;20226;-55
2022/10/20 14:42:14;;;;;;;0.90;0.90;;;;;;;;;;4984796;28;20567;-55
2022/10/20 14:44:42;;;;;;;1.00;1.00;;;;;;;;;;4975959;28;20660;-54
2022/10/20 14:47:08;;;;;;;0.80;0.80;;;;;;;;;;4969722;28;20222;-55
2022/10/20 14:49:36;;;;;;;0.80;0.80;;;;;;;;;;4990358;28;20296;-55
2022/10/20 14:52:03;;;;;;;1.00;1.00;;;;;;;;;;4987411;28;20294;-54
2022/10/20 14:54:34;;;;;;;0.80;0.80;;;;;;;;;;4989714;28;20295;-54
2022/10/20 14:57:09;;;;;;;0.83;0.83;;;;;;;;;;4991280;28;20231;-55
2022/10/20 15:00:01;;;;;;;0.80;0.80;;;;;;;;;;4988104;28;20235;-55